Hlavní strana
METAR-TAF:

METAR-TAF

Letiště :

Andøya, Norsko

zeměpisná šířka: 69-18N, zeměpisná délka: 016-09E, výška: 1 m

Aktuální stav počasí

Zpráva byla vytvořena před 30 minutami, v 03:20 UTC
Jižní vítr 2 kt
Teplota -3°C
Vlhkost vzduchu 86%
Tlak 993 hPa
Viditelnost 10 km a více
slabé sněžení

METAR: ENAN 160320Z AUTO 18002KT 9999 -SN SCT030/// M03/M05 Q0993

Čas: 04:50 (03:50 UTC)

Předpověď počasí

Předpověď platná od 16 v 00 UTC do 16 v 24 UTC
Jihozápadní vítr 8 kt
Viditelnost 10 km a více
Polojasno ve výšce 4000 ft
Dočasný
od 16 v 00 UTC do 16 v 16 UTC
Západojihozápadní vítr 18 kt
Viditelnost: 1000 m
ve výšce 800 ft
sněhové přeháňky
Dočasný
od 16 v 00 UTC do 16 v 18 UTC
Polojasno ve výšce 1500 ft, Cumulonimbus.
Změna
od 16 v 15 UTC do 16 v 18 UTC
Východní vítr 10 kt

TAF: ENAN 1600/1624 23008KT 9999 SCT040 TEMPO 1600/1616 25018KT 1000 SHSN VV008 TEMPO 1600/1618 SCT015CB BECMG 1615/1618 08010KT

Stav a předpovědi počasí z více než 4 000 letišť (zprávy METAR a TAF).

Červené a žluté tečky na mapě představují dostupné meteorologické stanice.

Když kurzor umístíte na tečku, zobrazí se název stanice.

Pak kliknutím zobrazíte stav a předpověď počasí.

Chcete-li změnit mapu, kliknutím na zelené tlačítko se znaménkem +mapu přiblížíte, kliknutím na zelené tlačítko se znaménkem – mapu oddálíte a kliknutím na zelené šipky přejdete na sousední mapy.


METAR-TAF: